Lackland, Texas
Current Conditions -  °F | °C
As of 7:58 PM on Saturday 25 Oct 2014 (Local Time) from KSKF Reporting Station
Clear Clear  
Wind Chill: 75°   Ceiling: Unl
Heat Index: 75°   Visibility: 10mi
Dew Point: 55°   Wind: 6mph
Humidity: 49%   Direction: 120°ESE
Pressure: 30.07"   Gusts: NA
Location:  29.3853°N, 98.6099°W
Report Text: KSKF 260058Z AUTO 12005KT 10SM CLR 24/13 A3007 RMK AO2 SLP178 T02370125 $
Loading
Personal Weather Stations






























Interactive Weather Map
Tropical Storm Tracking
New forecast layout! Learn more

10-Day Weather Forecast

Advertisements
Track Severe Weather on mobile